sensor_id;sensor_type;location;lat;lon;timestamp;pressure;altitude;pressure_sealevel;temperature;humidity
35551;BME280;21655;46.056;13.616;2023-07-24T00:01:41;100376.88;;;20.47;100.00
35551;BME280;21655;46.056;13.616;2023-07-24T00:04:07;100370.34;;;20.58;100.00
35551;BME280;21655;46.056;13.616;2023-07-24T00:06:32;100367.69;;;20.51;100.00
35551;BME280;21655;46.056;13.616;2023-07-24T00:08:58;100365.81;;;20.45;100.00
35551;BME280;21655;46.056;13.616;2023-07-24T00:11:23;100363.72;;;20.41;100.00
35551;BME280;21655;46.056;13.616;2023-07-24T00:13:48;100357.59;;;20.32;100.00
35551;BME280;21655;46.056;13.616;2023-07-24T00:16:14;100360.06;;;20.29;100.00
35551;BME280;21655;46.056;13.616;2023-07-24T00:18:39;100352.34;;;20.24;100.00
35551;BME280;21655;46.056;13.616;2023-07-24T00:21:06;100354.16;;;20.19;100.00
35551;BME280;21655;46.056;13.616;2023-07-24T00:23:31;100341.91;;;20.02;100.00
35551;BME280;21655;46.056;13.616;2023-07-24T00:25:57;100344.59;;;20.08;100.00
35551;BME280;21655;46.056;13.616;2023-07-24T00:28:22;100345.09;;;20.17;100.00
35551;BME280;21655;46.056;13.616;2023-07-24T00:30:48;100345.84;;;20.24;100.00
35551;BME280;21655;46.056;13.616;2023-07-24T00:33:13;100344.00;;;20.29;100.00
35551;BME280;21655;46.056;13.616;2023-07-24T00:35:38;100339.97;;;20.37;100.00
35551;BME280;21655;46.056;13.616;2023-07-24T00:38:04;100345.88;;;20.35;100.00
35551;BME280;21655;46.056;13.616;2023-07-24T00:40:29;100339.09;;;20.25;100.00
35551;BME280;21655;46.056;13.616;2023-07-24T00:42:55;100345.38;;;20.27;100.00
35551;BME280;21655;46.056;13.616;2023-07-24T00:45:21;100336.44;;;20.18;100.00
35551;BME280;21655;46.056;13.616;2023-07-24T00:47:47;100338.59;;;20.16;100.00
35551;BME280;21655;46.056;13.616;2023-07-24T00:50:13;100326.63;;;20.21;100.00
35551;BME280;21655;46.056;13.616;2023-07-24T00:52:39;100330.41;;;20.15;100.00
35551;BME280;21655;46.056;13.616;2023-07-24T00:55:06;100329.81;;;20.13;100.00
35551;BME280;21655;46.056;13.616;2023-07-24T00:57:32;100333.84;;;20.05;100.00
35551;BME280;21655;46.056;13.616;2023-07-24T00:59:57;100335.34;;;20.01;100.00
35551;BME280;21655;46.056;13.616;2023-07-24T01:02:23;100329.13;;;19.99;100.00
35551;BME280;21655;46.056;13.616;2023-07-24T01:04:48;100341.91;;;20.02;100.00
35551;BME280;21655;46.056;13.616;2023-07-24T01:07:14;100327.28;;;19.93;100.00
35551;BME280;21655;46.056;13.616;2023-07-24T01:09:41;100330.81;;;19.89;100.00
35551;BME280;21655;46.056;13.616;2023-07-24T01:12:16;100331.69;;;19.89;100.00
35551;BME280;21655;46.056;13.616;2023-07-24T01:14:47;100326.31;;;19.99;100.00
35551;BME280;21655;46.056;13.616;2023-07-24T01:17:17;100322.53;;;19.94;100.00
35551;BME280;21655;46.056;13.616;2023-07-24T01:19:49;100318.72;;;19.88;100.00
35551;BME280;21655;46.056;13.616;2023-07-24T01:25:00;100321.25;;;19.90;100.00
35551;BME280;21655;46.056;13.616;2023-07-24T01:27:29;100326.88;;;19.78;100.00
35551;BME280;21655;46.056;13.616;2023-07-24T01:29:54;100324.94;;;19.79;100.00
35551;BME280;21655;46.056;13.616;2023-07-24T01:32:20;100314.13;;;19.76;100.00
35551;BME280;21655;46.056;13.616;2023-07-24T01:34:46;100314.41;;;19.86;100.00
35551;BME280;21655;46.056;13.616;2023-07-24T01:37:12;100317.94;;;19.81;100.00
35551;BME280;21655;46.056;13.616;2023-07-24T01:39:40;100309.97;;;19.78;100.00
35551;BME280;21655;46.056;13.616;2023-07-24T01:42:06;100310.09;;;19.72;100.00
35551;BME280;21655;46.056;13.616;2023-07-24T01:44:31;100312.19;;;19.76;100.00
35551;BME280;21655;46.056;13.616;2023-07-24T01:46:57;100309.59;;;19.75;100.00
35551;BME280;21655;46.056;13.616;2023-07-24T01:49:22;100313.56;;;19.85;100.00
35551;BME280;21655;46.056;13.616;2023-07-24T01:51:48;100303.28;;;19.91;100.00
35551;BME280;21655;46.056;13.616;2023-07-24T01:54:13;100297.78;;;19.96;100.00
35551;BME280;21655;46.056;13.616;2023-07-24T01:56:39;100286.28;;;19.97;100.00
35551;BME280;21655;46.056;13.616;2023-07-24T01:59:05;100291.56;;;19.94;100.00
35551;BME280;21655;46.056;13.616;2023-07-24T02:01:30;100288.09;;;19.80;100.00
35551;BME280;21655;46.056;13.616;2023-07-24T02:03:55;100286.72;;;19.71;100.00
35551;BME280;21655;46.056;13.616;2023-07-24T02:06:21;100282.63;;;19.56;100.00
35551;BME280;21655;46.056;13.616;2023-07-24T02:08:46;100279.47;;;19.52;100.00
35551;BME280;21655;46.056;13.616;2023-07-24T02:11:17;100275.28;;;19.43;100.00
35551;BME280;21655;46.056;13.616;2023-07-24T02:13:46;100272.78;;;19.35;100.00
35551;BME280;21655;46.056;13.616;2023-07-24T02:16:14;100264.50;;;19.40;100.00
35551;BME280;21655;46.056;13.616;2023-07-24T02:18:42;100268.94;;;19.48;100.00
35551;BME280;21655;46.056;13.616;2023-07-24T02:21:07;100269.94;;;19.53;100.00
35551;BME280;21655;46.056;13.616;2023-07-24T02:23:33;100260.75;;;19.58;100.00
35551;BME280;21655;46.056;13.616;2023-07-24T02:25:58;100262.34;;;19.54;100.00
35551;BME280;21655;46.056;13.616;2023-07-24T02:28:24;100254.88;;;19.48;100.00
35551;BME280;21655;46.056;13.616;2023-07-24T02:30:49;100254.97;;;19.41;100.00
35551;BME280;21655;46.056;13.616;2023-07-24T02:33:17;100260.81;;;19.40;100.00
35551;BME280;21655;46.056;13.616;2023-07-24T02:35:42;100259.47;;;19.31;100.00
35551;BME280;21655;46.056;13.616;2023-07-24T02:38:08;100250.84;;;19.26;100.00
35551;BME280;21655;46.056;13.616;2023-07-24T02:40:34;100246.81;;;19.22;100.00
35551;BME280;21655;46.056;13.616;2023-07-24T02:43:00;100247.34;;;19.30;100.00
35551;BME280;21655;46.056;13.616;2023-07-24T02:45:26;100242.50;;;19.37;100.00
35551;BME280;21655;46.056;13.616;2023-07-24T02:47:51;100232.84;;;19.45;100.00
35551;BME280;21655;46.056;13.616;2023-07-24T02:50:16;100234.19;;;19.54;100.00
35551;BME280;21655;46.056;13.616;2023-07-24T02:52:42;100236.41;;;19.52;100.00
35551;BME280;21655;46.056;13.616;2023-07-24T02:55:07;100238.81;;;19.48;100.00
35551;BME280;21655;46.056;13.616;2023-07-24T02:57:33;100243.03;;;19.57;100.00
35551;BME280;21655;46.056;13.616;2023-07-24T02:59:58;100241.66;;;19.60;100.00
35551;BME280;21655;46.056;13.616;2023-07-24T03:02:24;100237.53;;;19.62;100.00
35551;BME280;21655;46.056;13.616;2023-07-24T03:04:49;100246.06;;;19.56;100.00
35551;BME280;21655;46.056;13.616;2023-07-24T03:07:15;100256.81;;;19.47;100.00
35551;BME280;21655;46.056;13.616;2023-07-24T03:09:40;100241.50;;;19.32;100.00
35551;BME280;21655;46.056;13.616;2023-07-24T03:12:06;100254.19;;;19.34;100.00
35551;BME280;21655;46.056;13.616;2023-07-24T03:14:31;100253.66;;;19.26;100.00
35551;BME280;21655;46.056;13.616;2023-07-24T03:16:57;100265.66;;;19.21;100.00
35551;BME280;21655;46.056;13.616;2023-07-24T03:19:22;100259.41;;;19.19;100.00
35551;BME280;21655;46.056;13.616;2023-07-24T03:21:47;100262.28;;;19.13;100.00
35551;BME280;21655;46.056;13.616;2023-07-24T03:24:13;100258.69;;;19.24;100.00
35551;BME280;21655;46.056;13.616;2023-07-24T03:26:38;100264.91;;;19.26;100.00
35551;BME280;21655;46.056;13.616;2023-07-24T03:29:04;100264.16;;;19.19;100.00
35551;BME280;21655;46.056;13.616;2023-07-24T03:31:30;100264.00;;;19.14;100.00
35551;BME280;21655;46.056;13.616;2023-07-24T03:33:55;100256.91;;;19.11;100.00
35551;BME280;21655;46.056;13.616;2023-07-24T03:36:21;100253.25;;;19.11;100.00
35551;BME280;21655;46.056;13.616;2023-07-24T03:38:46;100258.59;;;19.12;100.00
35551;BME280;21655;46.056;13.616;2023-07-24T03:41:11;100257.50;;;19.13;100.00
35551;BME280;21655;46.056;13.616;2023-07-24T03:43:37;100243.63;;;19.18;100.00
35551;BME280;21655;46.056;13.616;2023-07-24T03:46:03;100255.25;;;19.22;100.00
35551;BME280;21655;46.056;13.616;2023-07-24T03:48:28;100244.03;;;19.33;100.00
35551;BME280;21655;46.056;13.616;2023-07-24T03:51:00;100245.75;;;19.34;100.00
35551;BME280;21655;46.056;13.616;2023-07-24T03:53:26;100242.44;;;19.26;100.00
35551;BME280;21655;46.056;13.616;2023-07-24T03:55:51;100240.59;;;19.20;100.00
35551;BME280;21655;46.056;13.616;2023-07-24T03:58:17;100250.13;;;19.19;100.00
35551;BME280;21655;46.056;13.616;2023-07-24T04:00:42;100242.69;;;19.24;100.00
35551;BME280;21655;46.056;13.616;2023-07-24T04:03:08;100232.78;;;19.33;100.00
35551;BME280;21655;46.056;13.616;2023-07-24T04:05:34;100233.41;;;19.35;100.00
35551;BME280;21655;46.056;13.616;2023-07-24T04:08:00;100244.19;;;19.38;100.00
35551;BME280;21655;46.056;13.616;2023-07-24T04:10:25;100234.06;;;19.49;100.00
35551;BME280;21655;46.056;13.616;2023-07-24T04:12:51;100235.03;;;19.43;100.00
35551;BME280;21655;46.056;13.616;2023-07-24T04:15:17;100235.31;;;19.53;100.00
35551;BME280;21655;46.056;13.616;2023-07-24T04:17:42;100238.25;;;19.58;100.00
35551;BME280;21655;46.056;13.616;2023-07-24T04:20:08;100234.47;;;19.64;100.00
35551;BME280;21655;46.056;13.616;2023-07-24T04:22:34;100227.63;;;19.71;100.00
35551;BME280;21655;46.056;13.616;2023-07-24T04:24:59;100238.28;;;19.81;100.00
35551;BME280;21655;46.056;13.616;2023-07-24T04:27:25;100236.94;;;19.83;100.00
35551;BME280;21655;46.056;13.616;2023-07-24T04:29:50;100232.06;;;19.79;100.00
35551;BME280;21655;46.056;13.616;2023-07-24T04:32:15;100222.13;;;19.88;100.00
35551;BME280;21655;46.056;13.616;2023-07-24T04:34:41;100222.13;;;19.99;100.00
35551;BME280;21655;46.056;13.616;2023-07-24T04:37:06;100217.66;;;20.10;100.00
35551;BME280;21655;46.056;13.616;2023-07-24T04:39:32;100226.47;;;20.13;100.00
35551;BME280;21655;46.056;13.616;2023-07-24T04:41:59;100227.06;;;20.04;100.00
35551;BME280;21655;46.056;13.616;2023-07-24T04:44:24;100228.06;;;20.09;100.00
35551;BME280;21655;46.056;13.616;2023-07-24T04:46:49;100228.16;;;20.14;100.00
35551;BME280;21655;46.056;13.616;2023-07-24T04:49:15;100238.22;;;20.22;100.00
35551;BME280;21655;46.056;13.616;2023-07-24T04:51:41;100243.72;;;20.28;100.00
35551;BME280;21655;46.056;13.616;2023-07-24T04:54:06;100227.66;;;20.40;100.00
35551;BME280;21655;46.056;13.616;2023-07-24T04:56:32;100227.28;;;20.60;100.00
35551;BME280;21655;46.056;13.616;2023-07-24T04:58:57;100226.47;;;20.76;100.00
35551;BME280;21655;46.056;13.616;2023-07-24T05:01:23;100230.38;;;20.98;100.00
35551;BME280;21655;46.056;13.616;2023-07-24T05:03:48;100225.34;;;21.27;100.00
35551;BME280;21655;46.056;13.616;2023-07-24T05:06:13;100233.91;;;21.32;100.00
35551;BME280;21655;46.056;13.616;2023-07-24T05:08:39;100234.25;;;21.64;100.00
35551;BME280;21655;46.056;13.616;2023-07-24T05:11:04;100230.94;;;21.83;100.00
35551;BME280;21655;46.056;13.616;2023-07-24T05:13:30;100238.09;;;22.07;100.00
35551;BME280;21655;46.056;13.616;2023-07-24T05:15:55;100231.75;;;22.33;100.00
35551;BME280;21655;46.056;13.616;2023-07-24T05:18:21;100233.34;;;22.62;100.00
35551;BME280;21655;46.056;13.616;2023-07-24T05:20:47;100224.13;;;22.72;100.00
35551;BME280;21655;46.056;13.616;2023-07-24T05:23:13;100219.22;;;22.84;100.00
35551;BME280;21655;46.056;13.616;2023-07-24T05:25:38;100216.19;;;22.90;100.00
35551;BME280;21655;46.056;13.616;2023-07-24T05:28:04;100211.13;;;23.13;100.00
35551;BME280;21655;46.056;13.616;2023-07-24T05:30:29;100212.53;;;23.37;100.00
35551;BME280;21655;46.056;13.616;2023-07-24T05:32:55;100209.28;;;23.50;100.00
35551;BME280;21655;46.056;13.616;2023-07-24T05:35:20;100214.22;;;23.65;100.00
35551;BME280;21655;46.056;13.616;2023-07-24T05:37:46;100217.28;;;23.85;100.00
35551;BME280;21655;46.056;13.616;2023-07-24T05:40:11;100216.50;;;23.94;100.00
35551;BME280;21655;46.056;13.616;2023-07-24T05:42:36;100225.59;;;24.33;100.00
35551;BME280;21655;46.056;13.616;2023-07-24T05:45:07;100225.97;;;24.88;100.00
35551;BME280;21655;46.056;13.616;2023-07-24T05:47:33;100226.38;;;25.16;100.00
35551;BME280;21655;46.056;13.616;2023-07-24T05:49:58;100226.06;;;25.17;100.00
35551;BME280;21655;46.056;13.616;2023-07-24T05:52:24;100214.13;;;25.06;100.00
35551;BME280;21655;46.056;13.616;2023-07-24T05:54:49;100221.94;;;24.79;100.00
35551;BME280;21655;46.056;13.616;2023-07-24T05:57:15;100240.28;;;24.61;100.00
35551;BME280;21655;46.056;13.616;2023-07-24T05:59:40;100237.97;;;24.58;100.00
35551;BME280;21655;46.056;13.616;2023-07-24T06:02:06;100232.88;;;24.55;100.00
35551;BME280;21655;46.056;13.616;2023-07-24T06:04:32;100218.63;;;24.50;100.00
35551;BME280;21655;46.056;13.616;2023-07-24T06:06:58;100221.13;;;24.42;100.00
35551;BME280;21655;46.056;13.616;2023-07-24T06:09:23;100219.34;;;24.67;100.00
35551;BME280;21655;46.056;13.616;2023-07-24T06:11:49;100209.84;;;25.03;100.00
35551;BME280;21655;46.056;13.616;2023-07-24T06:14:14;100204.09;;;25.59;100.00
35551;BME280;21655;46.056;13.616;2023-07-24T06:16:41;100207.25;;;25.88;100.00
35551;BME280;21655;46.056;13.616;2023-07-24T06:19:06;100201.81;;;26.51;100.00
35551;BME280;21655;46.056;13.616;2023-07-24T06:21:31;100193.97;;;27.02;100.00
35551;BME280;21655;46.056;13.616;2023-07-24T06:23:57;100186.47;;;27.74;100.00
35551;BME280;21655;46.056;13.616;2023-07-24T06:26:22;100194.75;;;28.09;100.00
35551;BME280;21655;46.056;13.616;2023-07-24T06:28:48;100194.06;;;28.22;100.00
35551;BME280;21655;46.056;13.616;2023-07-24T06:31:13;100195.94;;;28.03;100.00
35551;BME280;21655;46.056;13.616;2023-07-24T06:33:38;100201.50;;;27.84;100.00
35551;BME280;21655;46.056;13.616;2023-07-24T06:36:08;100202.34;;;28.18;100.00
35551;BME280;21655;46.056;13.616;2023-07-24T06:38:34;100201.69;;;28.60;100.00
35551;BME280;21655;46.056;13.616;2023-07-24T06:40:59;100205.31;;;28.94;100.00
35551;BME280;21655;46.056;13.616;2023-07-24T06:43:25;100198.13;;;28.73;100.00
35551;BME280;21655;46.056;13.616;2023-07-24T06:45:51;100199.97;;;28.30;100.00
35551;BME280;21655;46.056;13.616;2023-07-24T06:48:16;100198.63;;;28.51;100.00
35551;BME280;21655;46.056;13.616;2023-07-24T06:50:41;100194.34;;;28.54;100.00
35551;BME280;21655;46.056;13.616;2023-07-24T06:53:07;100199.88;;;28.69;100.00
35551;BME280;21655;46.056;13.616;2023-07-24T06:55:32;100203.41;;;28.84;100.00
35551;BME280;21655;46.056;13.616;2023-07-24T06:57:58;100186.22;;;28.89;100.00
35551;BME280;21655;46.056;13.616;2023-07-24T07:00:23;100190.00;;;28.85;100.00
35551;BME280;21655;46.056;13.616;2023-07-24T07:02:48;100188.44;;;28.97;100.00
35551;BME280;21655;46.056;13.616;2023-07-24T07:05:14;100192.47;;;29.15;100.00
35551;BME280;21655;46.056;13.616;2023-07-24T07:07:39;100197.03;;;29.57;100.00
35551;BME280;21655;46.056;13.616;2023-07-24T07:10:05;100179.31;;;29.92;100.00
35551;BME280;21655;46.056;13.616;2023-07-24T07:12:31;100163.91;;;30.39;100.00
35551;BME280;21655;46.056;13.616;2023-07-24T07:14:56;100160.41;;;30.87;100.00
35551;BME280;21655;46.056;13.616;2023-07-24T07:17:21;100152.00;;;31.44;100.00
35551;BME280;21655;46.056;13.616;2023-07-24T07:19:47;100139.63;;;31.22;100.00
35551;BME280;21655;46.056;13.616;2023-07-24T07:22:12;100122.59;;;31.39;100.00
35551;BME280;21655;46.056;13.616;2023-07-24T07:24:38;100085.41;;;30.58;100.00
35551;BME280;21655;46.056;13.616;2023-07-24T07:27:03;100070.66;;;30.51;100.00
35551;BME280;21655;46.056;13.616;2023-07-24T07:29:29;100088.25;;;30.72;100.00
35551;BME280;21655;46.056;13.616;2023-07-24T07:31:56;100079.47;;;30.68;100.00
35551;BME280;21655;46.056;13.616;2023-07-24T07:34:21;100090.53;;;30.16;100.00
35551;BME280;21655;46.056;13.616;2023-07-24T07:36:47;100114.84;;;29.49;100.00
35551;BME280;21655;46.056;13.616;2023-07-24T07:39:12;100115.41;;;29.10;100.00
35551;BME280;21655;46.056;13.616;2023-07-24T07:41:38;100124.50;;;28.93;100.00
35551;BME280;21655;46.056;13.616;2023-07-24T07:44:03;100115.66;;;29.13;100.00
35551;BME280;21655;46.056;13.616;2023-07-24T07:46:29;100114.56;;;29.64;100.00
35551;BME280;21655;46.056;13.616;2023-07-24T07:48:54;100109.50;;;30.25;100.00
35551;BME280;21655;46.056;13.616;2023-07-24T07:51:20;100122.47;;;30.50;100.00
35551;BME280;21655;46.056;13.616;2023-07-24T07:53:45;100112.78;;;30.19;100.00
35551;BME280;21655;46.056;13.616;2023-07-24T07:56:11;100119.22;;;29.60;100.00
35551;BME280;21655;46.056;13.616;2023-07-24T07:58:36;100117.81;;;29.39;100.00
35551;BME280;21655;46.056;13.616;2023-07-24T08:01:05;100109.81;;;29.60;100.00
35551;BME280;21655;46.056;13.616;2023-07-24T08:03:31;100104.28;;;29.82;100.00
35551;BME280;21655;46.056;13.616;2023-07-24T08:05:57;100083.03;;;30.33;100.00
35551;BME280;21655;46.056;13.616;2023-07-24T08:08:23;100068.97;;;31.39;100.00
35551;BME280;21655;46.056;13.616;2023-07-24T08:10:48;100063.00;;;32.46;100.00
35551;BME280;21655;46.056;13.616;2023-07-24T08:13:14;100054.75;;;33.00;100.00
35551;BME280;21655;46.056;13.616;2023-07-24T08:15:39;100058.88;;;33.58;100.00
35551;BME280;21655;46.056;13.616;2023-07-24T08:18:05;100048.34;;;34.22;100.00
35551;BME280;21655;46.056;13.616;2023-07-24T08:20:32;100049.94;;;34.48;100.00
35551;BME280;21655;46.056;13.616;2023-07-24T08:23:00;100044.44;;;34.72;100.00
35551;BME280;21655;46.056;13.616;2023-07-24T08:25:25;100027.88;;;35.39;100.00
35551;BME280;21655;46.056;13.616;2023-07-24T08:27:50;100017.75;;;35.33;100.00
35551;BME280;21655;46.056;13.616;2023-07-24T08:30:17;100020.22;;;34.02;100.00
35551;BME280;21655;46.056;13.616;2023-07-24T08:32:42;100011.06;;;34.08;100.00
35551;BME280;21655;46.056;13.616;2023-07-24T08:35:08;100012.59;;;34.14;100.00
35551;BME280;21655;46.056;13.616;2023-07-24T08:37:33;100017.19;;;34.61;100.00
35551;BME280;21655;46.056;13.616;2023-07-24T08:39:59;100024.91;;;34.78;100.00
35551;BME280;21655;46.056;13.616;2023-07-24T08:42:24;100024.13;;;34.23;100.00
35551;BME280;21655;46.056;13.616;2023-07-24T08:44:51;100028.69;;;34.24;100.00
35551;BME280;21655;46.056;13.616;2023-07-24T08:47:18;100035.91;;;34.38;100.00
35551;BME280;21655;46.056;13.616;2023-07-24T08:49:46;100032.13;;;34.55;100.00
35551;BME280;21655;46.056;13.616;2023-07-24T08:52:11;100023.28;;;34.60;100.00
35551;BME280;21655;46.056;13.616;2023-07-24T08:54:37;100015.69;;;35.13;100.00
35551;BME280;21655;46.056;13.616;2023-07-24T08:57:07;100031.00;;;35.34;100.00
35551;BME280;21655;46.056;13.616;2023-07-24T08:59:33;100051.19;;;35.05;100.00
35551;BME280;21655;46.056;13.616;2023-07-24T09:01:59;100047.88;;;35.24;100.00
35551;BME280;21655;46.056;13.616;2023-07-24T09:04:25;100053.72;;;35.36;100.00
35551;BME280;21655;46.056;13.616;2023-07-24T09:06:50;100049.75;;;35.40;100.00
35551;BME280;21655;46.056;13.616;2023-07-24T09:09:16;100054.22;;;35.09;100.00
35551;BME280;21655;46.056;13.616;2023-07-24T09:11:52;100050.16;;;34.81;100.00
35551;BME280;21655;46.056;13.616;2023-07-24T09:16:47;100022.66;;;33.57;100.00
35551;BME280;21655;46.056;13.616;2023-07-24T09:19:17;100017.09;;;33.44;100.00
35551;BME280;21655;46.056;13.616;2023-07-24T09:21:43;99998.94;;;33.94;100.00
35551;BME280;21655;46.056;13.616;2023-07-24T09:24:13;99981.41;;;35.12;100.00
35551;BME280;21655;46.056;13.616;2023-07-24T09:26:52;99971.50;;;36.51;94.03
35551;BME280;21655;46.056;13.616;2023-07-24T09:29:18;99950.28;;;36.95;90.09
35551;BME280;21655;46.056;13.616;2023-07-24T09:31:44;99921.06;;;37.24;82.05
35551;BME280;21655;46.056;13.616;2023-07-24T09:34:15;99871.34;;;37.34;74.40
35551;BME280;21655;46.056;13.616;2023-07-24T09:36:41;99852.50;;;37.82;71.92
35551;BME280;21655;46.056;13.616;2023-07-24T09:39:07;99889.81;;;38.61;65.11
35551;BME280;21655;46.056;13.616;2023-07-24T09:41:36;99934.31;;;38.07;65.22
35551;BME280;21655;46.056;13.616;2023-07-24T09:44:01;99948.75;;;36.61;70.07
35551;BME280;21655;46.056;13.616;2023-07-24T09:46:27;99954.81;;;35.06;90.17
35551;BME280;21655;46.056;13.616;2023-07-24T09:48:55;99974.25;;;35.79;85.03
35551;BME280;21655;46.056;13.616;2023-07-24T09:51:22;99963.41;;;35.76;89.04
35551;BME280;21655;46.056;13.616;2023-07-24T09:56:29;99994.63;;;34.26;100.00
35551;BME280;21655;46.056;13.616;2023-07-24T09:58:58;100003.59;;;34.62;100.00
35551;BME280;21655;46.056;13.616;2023-07-24T10:01:24;100005.19;;;35.09;98.23
35551;BME280;21655;46.056;13.616;2023-07-24T10:03:50;100018.09;;;34.82;99.79
35551;BME280;21655;46.056;13.616;2023-07-24T10:06:16;100029.13;;;33.71;100.00
35551;BME280;21655;46.056;13.616;2023-07-24T10:08:43;100054.56;;;32.58;100.00
35551;BME280;21655;46.056;13.616;2023-07-24T10:11:13;100074.22;;;31.46;100.00
35551;BME280;21655;46.056;13.616;2023-07-24T10:13:39;100076.03;;;30.93;100.00
35551;BME280;21655;46.056;13.616;2023-07-24T10:16:05;99979.47;;;30.45;100.00
35551;BME280;21655;46.056;13.616;2023-07-24T10:18:41;99823.16;;;30.08;100.00
35551;BME280;21655;46.056;13.616;2023-07-24T10:21:09;99883.75;;;29.97;100.00
35551;BME280;21655;46.056;13.616;2023-07-24T10:23:36;99966.06;;;30.00;100.00
35551;BME280;21655;46.056;13.616;2023-07-24T10:26:03;99993.72;;;29.91;100.00
35551;BME280;21655;46.056;13.616;2023-07-24T10:28:33;99986.00;;;30.45;100.00
35551;BME280;21655;46.056;13.616;2023-07-24T10:31:01;99988.75;;;31.48;100.00
35551;BME280;21655;46.056;13.616;2023-07-24T10:33:30;99988.72;;;31.92;100.00
35551;BME280;21655;46.056;13.616;2023-07-24T10:36:04;100003.63;;;31.72;100.00
35551;BME280;21655;46.056;13.616;2023-07-24T10:38:37;100020.00;;;31.14;100.00
35551;BME280;21655;46.056;13.616;2023-07-24T10:41:04;100028.41;;;30.84;100.00
35551;BME280;21655;46.056;13.616;2023-07-24T10:43:47;100025.81;;;30.74;100.00
35551;BME280;21655;46.056;13.616;2023-07-24T10:46:13;100009.06;;;30.67;100.00
35551;BME280;21655;46.056;13.616;2023-07-24T10:49:00;100008.06;;;30.85;100.00
35551;BME280;21655;46.056;13.616;2023-07-24T10:51:27;100002.75;;;31.49;100.00
35551;BME280;21655;46.056;13.616;2023-07-24T10:53:54;99991.69;;;32.39;100.00
35551;BME280;21655;46.056;13.616;2023-07-24T10:56:19;99992.41;;;31.84;100.00
35551;BME280;21655;46.056;13.616;2023-07-24T10:58:44;100033.69;;;31.17;100.00
35551;BME280;21655;46.056;13.616;2023-07-24T11:01:10;100056.03;;;30.66;100.00
35551;BME280;21655;46.056;13.616;2023-07-24T11:03:37;100113.00;;;30.22;100.00
35551;BME280;21655;46.056;13.616;2023-07-24T11:06:03;100126.72;;;29.75;100.00
35551;BME280;21655;46.056;13.616;2023-07-24T11:08:29;100078.97;;;29.57;100.00
35551;BME280;21655;46.056;13.616;2023-07-24T11:10:56;100065.13;;;29.45;100.00
35551;BME280;21655;46.056;13.616;2023-07-24T11:13:24;100074.09;;;29.39;100.00
35551;BME280;21655;46.056;13.616;2023-07-24T11:15:50;100088.22;;;29.30;100.00
35551;BME280;21655;46.056;13.616;2023-07-24T11:18:17;100130.78;;;29.14;100.00
35551;BME280;21655;46.056;13.616;2023-07-24T11:20:47;100135.66;;;29.13;100.00
35551;BME280;21655;46.056;13.616;2023-07-24T11:23:15;100137.44;;;29.64;100.00
35551;BME280;21655;46.056;13.616;2023-07-24T11:25:41;100143.94;;;30.07;100.00
35551;BME280;21655;46.056;13.616;2023-07-24T11:28:07;100138.88;;;29.99;100.00
35551;BME280;21655;46.056;13.616;2023-07-24T11:30:34;100133.56;;;29.92;100.00
35551;BME280;21655;46.056;13.616;2023-07-24T11:33:02;100128.31;;;29.81;100.00
35551;BME280;21655;46.056;13.616;2023-07-24T11:35:28;100114.66;;;29.59;100.00
35551;BME280;21655;46.056;13.616;2023-07-24T11:37:54;100085.94;;;29.69;100.00
35551;BME280;21655;46.056;13.616;2023-07-24T11:40:19;100081.53;;;30.09;100.00
35551;BME280;21655;46.056;13.616;2023-07-24T11:42:47;100067.91;;;30.60;100.00
35551;BME280;21655;46.056;13.616;2023-07-24T11:45:13;100047.44;;;31.29;100.00
35551;BME280;21655;46.056;13.616;2023-07-24T11:47:42;100027.94;;;31.74;100.00
35551;BME280;21655;46.056;13.616;2023-07-24T11:50:08;100022.53;;;32.25;100.00
35551;BME280;21655;46.056;13.616;2023-07-24T11:52:47;99998.28;;;32.96;100.00
35551;BME280;21655;46.056;13.616;2023-07-24T11:55:18;99964.13;;;33.37;100.00
35551;BME280;21655;46.056;13.616;2023-07-24T11:58:13;99903.09;;;33.23;100.00
35551;BME280;21655;46.056;13.616;2023-07-24T12:00:39;99870.47;;;32.85;100.00
35551;BME280;21655;46.056;13.616;2023-07-24T12:03:04;99868.38;;;32.51;100.00
35551;BME280;21655;46.056;13.616;2023-07-24T12:05:37;99860.63;;;32.60;100.00
35551;BME280;21655;46.056;13.616;2023-07-24T12:08:03;99852.88;;;32.86;100.00
35551;BME280;21655;46.056;13.616;2023-07-24T12:10:28;99860.94;;;32.59;100.00
35551;BME280;21655;46.056;13.616;2023-07-24T12:12:57;99852.25;;;32.16;100.00
35551;BME280;21655;46.056;13.616;2023-07-24T12:15:23;99829.13;;;32.13;100.00
35551;BME280;21655;46.056;13.616;2023-07-24T12:17:48;99812.00;;;31.99;100.00
35551;BME280;21655;46.056;13.616;2023-07-24T12:20:13;99771.78;;;31.74;100.00
35551;BME280;21655;46.056;13.616;2023-07-24T12:22:39;99771.19;;;31.55;100.00
35551;BME280;21655;46.056;13.616;2023-07-24T12:25:06;99799.91;;;31.63;100.00
35551;BME280;21655;46.056;13.616;2023-07-24T12:27:32;99833.06;;;31.47;100.00
35551;BME280;21655;46.056;13.616;2023-07-24T12:29:58;99847.56;;;31.21;100.00
35551;BME280;21655;46.056;13.616;2023-07-24T12:32:24;99858.81;;;30.95;100.00
35551;BME280;21655;46.056;13.616;2023-07-24T12:34:51;99881.50;;;30.83;100.00
35551;BME280;21655;46.056;13.616;2023-07-24T12:37:17;99873.53;;;30.58;100.00